Airfield :
LOGIN :

Register | Disclaimer

   EN    FR    IT 

 










Legend :    VFR   Marginal VFR   IFR   Intensive IFR   Very Intensive IFR
Visi :
Ceiling :
>= 8 km
>= 3000ft
5 to 8 km
1000 to 3000 ft
1500m to 5 km
500 to 1000 ft
800 to 1500m
200 to 500 ft
< 800m
< 200 ft
Symbols :   Thunderstorms  Fog  Heavy snow  Heavy precipitations  Wind > 20 kt
SIGMETs :     Misc.  Thunderstorms  Icing  Turbulence  Mountain Waves  Volcanic Ashes







- Airport Elevation : 3 ft
- IATA code : DHR


EHKD - Den Helder De Kooy

CURRENT METAR :
  • 180726Z AUTO 36007KT 320V040 9999 SCT024 BKN027 BKN280 14/10 Q1025 WHT 01008KT 9999 FEW017 SCT020 TEMPO SCT025

EXPIRED METARs :
  • 180713Z AUTO 36006KT 330V050 9999 BKN023 BKN027 OVC290 13/10 Q1024 WHT 35008KT 9999 SCT020
  • 180655Z AUTO 36007KT 330V050 9999 BKN026 OVC270 13/10 Q1024 BLU 35008KT 9999 SCT020
  • 180625Z AUTO 36007KT 320V040 9999 BKN025 OVC029 13/10 Q1024 BLU 35008KT 9999 SCT020
  • 180613Z AUTO 36007KT 330V050 9999 FEW020 BKN025 OVC029 13/10 Q1024 BLU 35008KT 9999 SCT020
  • 180600Z AUTO 36006KT 320V050 9999 SCT018 OVC027 13/10 Q1024 WHT 35008KT 9999 SCT020
  • 180525Z AUTO 36005KT 320V040 9999 FEW019 SCT025 BKN028 13/10 Q1024 BLU 35008KT 9999 SCT020
  • 180508Z AUTO 36006KT 310V070 9999 FEW018 SCT022 13/10 Q1024 WHT 35008KT 9999 SCT020
  • 180455Z AUTO 36006KT 320V050 9999 NCD 12/10 Q1023 BLU 35008KT 9999 SCT020

TAF TAF EHKD
Valid from the 18 at 05:00 until the 18 at 17:00 UTC


180435Z 1805/1817 01008KT 9999 FEW017 SCT020
BECMG 1814/1817 05011KT
No reported NOTAMs for that airfield.



MET'MAP, your aeronautical weather chart ! - Copyright ORBIFLY December 2007 - Disclaimer

ORBIFLY MET'MAP TEAM :

Programming & Development : Alexandra Zaïnal
Concept & Development : Baudouin d'Aumeries
Co-Development & Prog : Marc-Olivier Méhu
Technical & hardware support : Manuel Goepfert

Contact : metmap@orbifly.com




SOURCES & CREDITS :

   NOAA